Time;durP1;ratioP1;P1;durP2;ratioP2;P2;SDS_P1;SDS_P2;PMS_P1;PMS_P2;Temp;Humidity;BMP_temperature;BMP_pressure;BME280_temperature;BME280_humidity;BME280_pressure;Samples;Min_cycle;Max_cycle;Signal;HPM_P1;HPM_P2
2022/02/09 00:04:05;;;;;;;1.48;1.30;;;10.90;99.90;;;;;;5091012;28;20028;-74
2022/02/09 00:06:59;;;;;;;1.50;1.40;;;10.90;99.90;;;;;;5080006;28;20032;-74
2022/02/09 00:09:25;;;;;;;4.95;1.70;;;10.90;99.90;;;;;;5089168;28;20020;-73
2022/02/09 00:33:02;;;;;;;2.95;1.80;;;10.90;99.90;;;;;;5092265;28;20033;-73
2022/02/09 01:56:20;;;;;;;7.05;6.20;;;10.90;99.90;;;;;;5090362;28;20039;-74
2022/02/09 01:58:46;;;;;;;8.63;7.68;;;10.90;99.90;;;;;;5094804;28;20049;-74
2022/02/09 02:01:12;;;;;;;9.50;7.65;;;10.80;99.90;;;;;;5095118;28;20020;-73
2022/02/09 02:03:38;;;;;;;7.70;6.90;;;10.90;99.90;;;;;;5088323;28;20028;-74
2022/02/09 02:06:04;;;;;;;8.10;7.18;;;10.90;99.90;;;;;;5093630;28;20028;-74
2022/02/09 02:08:32;;;;;;;11.15;7.43;;;10.80;99.90;;;;;;5086169;28;20157;-73
2022/02/09 02:11:06;;;;;;;7.78;7.00;;;10.80;99.90;;;;;;5092536;28;20039;-73
2022/02/09 02:16:25;;;;;;;9.45;7.95;;;10.90;99.90;;;;;;5092563;28;20051;-74
2022/02/09 02:18:56;;;;;;;9.73;7.30;;;10.90;99.90;;;;;;5092553;28;20097;-73
2022/02/09 02:27:09;;;;;;;13.63;9.07;;;10.90;99.90;;;;;;5095283;28;20051;-74
2022/02/09 02:29:55;;;;;;;9.55;8.35;;;10.80;99.90;;;;;;5085893;28;20060;-73
2022/02/09 03:13:03;;;;;;;10.75;8.90;;;10.70;99.90;;;;;;5087518;28;20059;-73
2022/02/09 03:15:41;;;;;;;12.63;8.32;;;10.60;99.90;;;;;;5088614;28;20162;-73
2022/02/09 03:20:59;;;;;;;10.18;7.85;;;10.70;99.90;;;;;;5085113;28;20051;-73
2022/02/09 03:47:22;;;;;;;7.95;5.53;;;10.70;99.90;;;;;;5089666;28;20051;-72
2022/02/09 03:55:16;;;;;;;6.55;4.22;;;10.70;99.90;;;;;;5088862;28;20032;-74
2022/02/09 03:57:45;;;;;;;7.32;5.03;;;10.60;99.90;;;;;;5087138;28;20055;-73
2022/02/09 04:00:13;;;;;;;6.90;4.22;;;10.60;99.90;;;;;;5088081;28;20052;-73
2022/02/09 04:02:38;;;;;;;5.35;4.25;;;10.60;99.90;;;;;;5087734;28;20061;-73
2022/02/09 04:05:05;;;;;;;5.95;4.60;;;10.60;99.90;;;;;;5086979;28;20024;-72
2022/02/09 04:07:30;;;;;;;5.05;3.95;;;10.60;99.90;;;;;;5093110;28;20024;-73
2022/02/09 04:09:59;;;;;;;6.13;4.60;;;10.60;99.90;;;;;;5084815;28;20131;-73
2022/02/09 04:18:13;;;;;;;4.00;3.38;;;10.60;99.90;;;;;;5079123;28;20425;-73
2022/02/09 04:37:21;;;;;;;3.75;3.28;;;10.50;99.90;;;;;;5090371;28;20038;-74
2022/02/09 04:40:06;;;;;;;5.53;3.17;;;10.50;99.90;;;;;;5085528;28;20401;-74
2022/02/09 04:42:42;;;;;;;3.85;2.88;;;10.60;99.90;;;;;;5091011;28;20050;-74
2022/02/09 04:47:53;;;;;;;5.47;4.03;;;10.60;99.90;;;;;;5090168;28;20048;-74
2022/02/09 04:50:36;;;;;;;4.60;3.47;;;10.60;99.90;;;;;;5086328;28;20384;-73
2022/02/09 04:54:11;;;;;;;6.70;4.20;;;10.60;99.90;;;;;;5090114;28;20027;-74
2022/02/09 04:56:08;;;;;;;6.28;4.00;;;10.50;99.90;;;;;;5091254;28;20028;-74
2022/02/09 04:58:46;;;;;;;8.75;5.50;;;10.50;99.90;;;;;;5083391;28;20028;-74
2022/02/09 05:01:55;;;;;;;8.10;4.72;;;10.50;99.90;;;;;;5084699;28;20377;-74
2022/02/09 05:04:24;;;;;;;9.02;4.95;;;10.50;99.90;;;;;;5082923;28;20548;-74
2022/02/09 05:28:38;;;;;;;11.60;7.28;;;10.40;99.90;;;;;;5048301;28;20513;-74
2022/02/09 05:31:06;;;;;;;12.95;8.60;;;10.30;99.90;;;;;;5034823;28;20108;-75
2022/02/09 05:33:32;;;;;;;14.35;7.70;;;10.30;99.90;;;;;;5066474;28;20476;-75
2022/02/09 05:35:57;;;;;;;12.27;7.78;;;10.30;99.90;;;;;;5091403;28;20042;-74
2022/02/09 05:38:23;;;;;;;13.50;8.73;;;10.30;99.90;;;;;;5082341;28;20034;-74
2022/02/09 05:40:49;;;;;;;14.80;8.10;;;10.30;99.90;;;;;;5086943;28;20480;-74
2022/02/09 05:43:15;;;;;;;12.57;7.50;;;10.30;99.90;;;;;;5083979;28;20431;-74
2022/02/09 05:53:42;;;;;;;14.30;9.65;;;10.30;99.90;;;;;;5083399;28;20036;-74
2022/02/09 05:56:20;;;;;;;11.98;8.90;;;10.30;99.90;;;;;;5085031;28;20115;-74
2022/02/09 05:58:50;;;;;;;13.20;8.63;;;10.30;99.90;;;;;;5082785;28;20032;-74
2022/02/09 06:01:16;;;;;;;11.57;8.30;;;10.30;99.90;;;;;;5085844;28;20484;-74
2022/02/09 06:03:42;;;;;;;13.70;9.40;;;10.30;99.90;;;;;;5090448;28;20115;-74
2022/02/09 06:06:09;;;;;;;10.90;7.93;;;10.40;99.90;;;;;;5088309;28;20028;-74
2022/02/09 06:08:37;;;;;;;16.88;10.35;;;10.30;99.90;;;;;;5089372;28;20028;-74
2022/02/09 06:11:24;;;;;;;11.88;8.60;;;10.40;99.90;;;;;;5082380;28;20014;-74
2022/02/09 06:14:19;;;;;;;16.42;9.82;;;10.30;99.90;;;;;;5089140;28;20083;-74
2022/02/09 06:22:09;;;;;;;13.45;9.35;;;10.40;99.90;;;;;;5075570;28;20044;-74
2022/02/09 06:24:38;;;;;;;16.00;9.65;;;10.40;99.90;;;;;;5090619;28;20020;-75
2022/02/09 06:27:04;;;;;;;14.13;9.73;;;10.40;99.90;;;;;;5086951;28;20109;-74
2022/02/09 06:29:30;;;;;;;15.10;10.68;;;10.40;99.90;;;;;;5088483;28;20490;-75
2022/02/09 06:31:56;;;;;;;17.33;11.07;;;10.40;99.90;;;;;;5090220;28;20518;-75
2022/02/09 06:34:22;;;;;;;18.13;12.38;;;10.40;99.90;;;;;;5086533;28;20032;-74
2022/02/09 06:36:59;;;;;;;15.80;11.88;;;10.40;99.90;;;;;;5093491;28;20416;-74
2022/02/09 06:39:25;;;;;;;16.77;10.93;;;10.40;99.90;;;;;;5087415;28;20093;-74
2022/02/09 06:41:52;;;;;;;13.80;10.30;;;10.40;99.90;;;;;;5086744;28;20047;-75
2022/02/09 06:44:20;;;;;;;16.63;11.27;;;10.30;99.90;;;;;;5093865;28;20514;-74
2022/02/09 06:46:46;;;;;;;15.80;10.60;;;10.30;99.90;;;;;;5093722;28;20089;-74
2022/02/09 06:49:11;;;;;;;18.50;12.68;;;10.30;99.90;;;;;;5091576;28;20028;-74
2022/02/09 06:51:39;;;;;;;19.58;11.07;;;10.30;99.90;;;;;;5087795;28;20024;-74
2022/02/09 06:54:25;;;;;;;17.25;11.82;;;10.30;99.90;;;;;;5089002;28;20035;-75
2022/02/09 06:59:29;;;;;;;17.27;11.35;;;10.30;99.90;;;;;;5089861;28;20064;-74
2022/02/09 07:02:03;;;;;;;20.13;11.80;;;10.40;99.90;;;;;;5087277;28;20028;-74
2022/02/09 07:04:29;;;;;;;22.40;12.45;;;10.30;99.90;;;;;;5092994;28;20476;-74
2022/02/09 07:06:55;;;;;;;16.65;12.25;;;10.40;99.90;;;;;;5088493;28;20036;-74
2022/02/09 07:09:22;;;;;;;16.40;10.88;;;10.40;99.90;;;;;;5095209;28;20031;-74
2022/02/09 07:11:47;;;;;;;17.50;11.95;;;10.40;99.90;;;;;;5088253;28;20453;-74
2022/02/09 07:14:13;;;;;;;18.90;13.02;;;10.40;99.90;;;;;;5090880;28;20036;-74
2022/02/09 07:16:39;;;;;;;20.67;12.18;;;10.40;99.90;;;;;;5086973;28;20110;-74
2022/02/09 07:19:08;;;;;;;17.65;10.82;;;10.40;99.90;;;;;;5087280;28;20032;-74
2022/02/09 07:21:36;;;;;;;18.00;11.63;;;10.40;99.90;;;;;;5091173;28;20039;-74
2022/02/09 07:24:03;;;;;;;16.35;11.07;;;10.40;99.90;;;;;;5088270;28;20455;-74
2022/02/09 07:26:41;;;;;;;19.10;11.23;;;10.40;99.90;;;;;;5089041;28;20040;-74
2022/02/09 07:29:08;;;;;;;15.20;10.30;;;10.40;99.90;;;;;;5083303;28;20024;-73
2022/02/09 07:31:33;;;;;;;16.08;10.35;;;10.50;99.90;;;;;;5089061;28;20521;-74
2022/02/09 07:33:59;;;;;;;15.20;9.85;;;10.40;99.90;;;;;;5084732;28;20024;-73
2022/02/09 07:36:31;;;;;;;15.70;10.80;;;10.40;99.90;;;;;;5091508;28;20077;-73
2022/02/09 07:38:58;;;;;;;18.20;10.88;;;10.50;99.90;;;;;;5088761;28;20032;-74
2022/02/09 07:41:23;;;;;;;19.35;10.90;;;10.50;99.90;;;;;;5094092;28;20082;-73
2022/02/09 07:44:13;;;;;;;15.38;10.48;;;10.40;99.90;;;;;;5089119;28;20468;-73
2022/02/09 07:49:25;;;;;;;14.45;9.82;;;10.40;99.90;;;;;;5086330;28;20078;-73
2022/02/09 07:54:22;;;;;;;16.38;10.43;;;10.50;99.90;;;;;;5091399;28;20028;-73
2022/02/09 07:56:48;;;;;;;18.17;10.25;;;10.50;99.90;;;;;;5087642;28;20028;-73
2022/02/09 07:59:15;;;;;;;13.82;9.93;;;10.50;99.90;;;;;;5090911;28;20043;-73
2022/02/09 08:01:42;;;;;;;19.52;10.95;;;10.40;99.90;;;;;;5085332;28;20032;-73
2022/02/09 08:04:09;;;;;;;19.58;11.63;;;10.50;99.90;;;;;;5085810;28;20020;-75
2022/02/09 08:06:36;;;;;;;13.82;9.98;;;10.60;99.90;;;;;;5089470;28;20151;-73
2022/02/09 08:09:09;;;;;;;18.52;11.20;;;10.60;99.90;;;;;;5082648;28;20028;-74
2022/02/09 08:26:14;;;;;;;13.75;9.00;;;10.70;99.90;;;;;;5088604;28;20753;-74
2022/02/09 08:28:45;;;;;;;14.95;9.25;;;10.60;99.90;;;;;;5083585;28;20033;-73
2022/02/09 08:33:16;;;;;;;13.77;9.93;;;10.70;99.90;;;;;;5085678;28;20021;-74
2022/02/09 08:35:43;;;;;;;14.75;9.63;;;10.70;99.90;;;;;;5084201;28;20036;-74
2022/02/09 08:38:08;;;;;;;16.63;10.35;;;10.70;99.90;;;;;;5084408;28;20028;-76
2022/02/09 08:40:35;;;;;;;13.95;9.77;;;10.80;99.90;;;;;;5089064;28;20396;-79
2022/02/09 08:43:02;;;;;;;12.45;8.10;;;10.70;99.90;;;;;;5090618;28;20070;-76
2022/02/09 08:45:28;;;;;;;12.05;8.10;;;10.80;99.90;;;;;;5085438;28;20020;-75
2022/02/09 08:47:56;;;;;;;10.65;7.50;;;10.80;99.90;;;;;;5083938;28;20036;-76
2022/02/09 08:50:22;;;;;;;10.60;7.80;;;10.80;99.90;;;;;;5087491;28;20035;-75
2022/02/09 08:52:48;;;;;;;10.02;7.80;;;10.80;99.90;;;;;;5086030;28;20482;-76
2022/02/09 08:55:14;;;;;;;9.95;6.93;;;10.90;99.90;;;;;;5089609;28;20016;-76
2022/02/09 08:57:40;;;;;;;7.40;6.30;;;10.90;99.90;;;;;;5082446;28;20039;-76
2022/02/09 09:00:17;;;;;;;10.25;6.13;;;10.80;99.90;;;;;;5087223;28;20024;-76
2022/02/09 09:02:47;;;;;;;7.38;5.50;;;11.00;99.90;;;;;;5084987;28;20084;-75
2022/02/09 09:05:21;;;;;;;6.70;5.50;;;11.00;99.90;;;;;;5080331;28;20021;-76
2022/02/09 09:07:53;;;;;;;5.65;4.03;;;11.10;99.90;;;;;;5089581;28;20105;-75
2022/02/09 09:10:28;;;;;;;4.05;3.65;;;11.10;99.90;;;;;;5082648;28;20400;-77
2022/02/09 09:16:48;;;;;;;3.50;3.20;;;11.10;99.90;;;;;;5085686;28;20128;-78
2022/02/09 09:18:54;;;;;;;5.97;3.95;;;11.10;99.90;;;;;;5087029;28;20032;-77
2022/02/09 10:02:41;;;;;;;8.45;6.57;;;11.40;99.90;;;;;;5084699;28;20032;-76
2022/02/09 10:05:40;;;;;;;8.40;6.25;;;11.40;99.90;;;;;;5091807;28;20156;-76
2022/02/09 10:31:02;;;;;;;7.72;4.50;;;11.70;99.90;;;;;;5094007;28;20403;-76
2022/02/09 10:33:57;;;;;;;4.88;3.00;;;11.80;99.90;;;;;;5086509;28;20051;-77
2022/02/09 10:36:23;;;;;;;4.13;3.28;;;11.70;99.90;;;;;;5090991;28;20020;-75
2022/02/09 10:39:09;;;;;;;7.03;3.92;;;11.80;99.90;;;;;;5087438;28;20089;-75
2022/02/09 10:41:43;;;;;;;6.03;3.70;;;11.80;99.90;;;;;;5091688;28;20056;-77
2022/02/09 10:44:12;;;;;;;4.75;3.17;;;11.90;99.90;;;;;;5083807;28;20028;-76
2022/02/09 10:46:52;;;;;;;6.45;4.03;;;11.90;99.90;;;;;;5091684;28;20036;-76
2022/02/09 10:49:21;;;;;;;6.53;4.32;;;11.90;99.90;;;;;;5085396;28;20036;-76
2022/02/09 10:52:03;;;;;;;8.63;4.80;;;12.10;99.90;;;;;;5092762;28;20027;-76
2022/02/09 10:54:30;;;;;;;4.20;3.53;;;12.10;99.90;;;;;;5094085;28;20112;-77
2022/02/09 10:56:58;;;;;;;5.88;3.80;;;12.00;99.90;;;;;;5090991;28;20039;-75
2022/02/09 10:59:29;;;;;;;5.43;3.67;;;11.90;99.90;;;;;;5085657;28;20039;-75
2022/02/09 11:01:57;;;;;;;6.07;3.70;;;12.00;99.90;;;;;;5085833;28;20128;-76
2022/02/09 11:04:22;;;;;;;5.80;3.65;;;11.90;99.90;;;;;;5085324;28;20028;-76
2022/02/09 11:06:49;;;;;;;7.82;4.13;;;11.90;99.90;;;;;;5089353;28;20138;-76
2022/02/09 11:09:18;;;;;;;5.55;3.63;;;11.90;99.90;;;;;;5091670;28;20081;-75
2022/02/09 11:11:44;;;;;;;5.20;3.65;;;11.90;99.90;;;;;;5085806;28;20495;-76
2022/02/09 11:14:14;;;;;;;7.50;4.45;;;11.80;99.90;;;;;;5089919;28;20059;-75
2022/02/09 11:16:47;;;;;;;7.43;4.03;;;11.90;99.90;;;;;;5085264;28;20023;-76
2022/02/09 11:19:15;;;;;;;;;;;12.00;99.90;;;;;;5086934;28;20030;-72
2022/02/09 11:21:44;;;;;;;5.95;3.70;;;11.90;99.90;;;;;;5082339;28;19927;-75
2022/02/09 11:24:24;;;;;;;6.93;4.28;;;11.90;99.90;;;;;;5086968;28;20184;-74
2022/02/09 11:27:10;;;;;;;4.85;3.63;;;12.00;99.90;;;;;;5089909;28;20036;-75
2022/02/09 11:29:46;;;;;;;5.82;3.88;;;12.00;99.90;;;;;;5087965;28;20031;-75
2022/02/09 11:32:35;;;;;;;4.60;3.50;;;12.00;99.90;;;;;;5088963;28;20492;-77
2022/02/09 11:35:20;;;;;;;5.57;4.00;;;12.00;99.90;;;;;;5091295;28;20024;-77
2022/02/09 11:46:47;;;;;;;7.57;3.65;;;12.20;99.90;;;;;;5045131;28;20029;-76
2022/02/09 11:49:52;;;;;;;5.68;3.55;;;12.40;99.90;;;;;;5081751;28;20097;-76
2022/02/09 11:58:54;;;;;;;4.50;2.17;;;12.40;99.90;;;;;;5090272;28;20081;-76
2022/02/09 12:09:23;;;;;;;4.20;2.88;;;12.50;99.90;;;;;;5089402;28;20078;-76
2022/02/09 12:11:50;;;;;;;7.68;3.15;;;12.60;99.90;;;;;;5084442;28;20116;-76
2022/02/09 12:25:44;;;;;;;3.30;2.92;;;12.60;99.90;;;;;;5090610;28;20392;-80
2022/02/09 12:28:22;;;;;;;4.55;2.53;;;12.60;99.90;;;;;;5092258;28;20158;-78
2022/02/09 12:30:49;;;;;;;3.25;2.47;;;12.60;99.90;;;;;;5077188;28;20109;-75
2022/02/09 12:33:23;;;;;;;5.13;3.15;;;12.60;99.90;;;;;;5087519;28;20024;-76
2022/02/09 12:35:49;;;;;;;3.50;2.42;;;12.60;99.90;;;;;;5089214;28;20036;-77
2022/02/09 12:38:36;;;;;;;3.33;2.40;;;12.60;99.90;;;;;;5099438;28;20024;-90
2022/02/09 12:41:10;;;;;;;2.75;2.10;;;12.70;99.90;;;;;;5091499;28;20072;-92
2022/02/09 12:44:03;;;;;;;3.17;2.10;;;12.80;99.90;;;;;;5096642;28;20047;-90
2022/02/09 12:46:34;;;;;;;4.45;2.53;;;12.90;99.90;;;;;;5094548;28;20549;-90
2022/02/09 12:49:14;;;;;;;3.03;2.28;;;12.90;99.90;;;;;;5081290;28;20017;-90
2022/02/09 12:51:43;;;;;;;3.25;2.30;;;12.90;99.90;;;;;;5103752;28;20077;-89
2022/02/09 12:54:10;;;;;;;3.95;1.90;;;12.90;99.90;;;;;;5096905;28;20027;-87
2022/02/09 12:56:42;;;;;;;3.72;2.20;;;13.00;99.90;;;;;;5101594;28;20111;-87
2022/02/09 12:59:20;;;;;;;4.22;1.88;;;12.90;99.90;;;;;;5088482;28;20085;-84
2022/02/09 13:01:52;;;;;;;2.65;2.00;;;13.00;99.90;;;;;;5093495;28;20032;-89
2022/02/09 13:04:37;;;;;;;3.72;1.92;;;13.00;99.90;;;;;;5098315;28;20021;-89
2022/02/09 13:07:18;;;;;;;5.95;2.10;;;12.90;99.90;;;;;;5098611;28;20061;-89
2022/02/09 13:09:51;;;;;;;6.32;2.33;;;12.90;99.90;;;;;;5092762;28;20039;-90
2022/02/09 13:12:29;;;;;;;3.05;1.67;;;12.90;99.90;;;;;;5093336;28;20082;-89
2022/02/09 13:15:19;;;;;;;6.82;2.42;;;12.90;99.90;;;;;;5095383;28;20028;-91
2022/02/09 13:52:09;;;;;;;5.88;2.40;;;13.40;99.90;;;;;;5083020;28;20070;-76
2022/02/09 14:18:59;;;;;;;6.55;3.35;;;13.30;99.90;;;;;;5083426;28;20028;-76
2022/02/09 14:51:32;;;;;;;5.30;2.58;;;13.30;99.90;;;;;;5078626;28;20033;-80
2022/02/09 14:54:05;;;;;;;2.75;1.92;;;13.30;99.90;;;;;;5086377;28;20400;-77
2022/02/09 14:56:49;;;;;;;4.07;2.55;;;13.30;99.90;;;;;;5090783;28;20028;-76
2022/02/09 14:59:34;;;;;;;7.10;2.70;;;13.20;99.90;;;;;;5089242;28;20028;-76
2022/02/09 15:02:05;;;;;;;5.80;2.75;;;13.30;99.90;;;;;;5090561;28;20024;-75
2022/02/09 15:04:50;;;;;;;5.68;2.83;;;13.30;99.90;;;;;;5089424;28;20028;-76
2022/02/09 15:07:29;;;;;;;6.57;2.25;;;13.20;99.90;;;;;;5085539;28;20028;-76
2022/02/09 15:10:03;;;;;;;3.63;2.20;;;13.20;99.90;;;;;;5087333;28;21011;-77
2022/02/09 15:15:35;;;;;;;3.63;2.22;;;13.20;99.90;;;;;;5087358;28;20067;-77
2022/02/09 15:23:29;;;;;;;3.97;2.83;;;13.00;99.90;;;;;;5093554;28;20047;-78
2022/02/09 15:25:59;;;;;;;6.47;3.15;;;13.00;99.90;;;;;;5091684;28;20419;-78
2022/02/09 15:28:25;;;;;;;4.78;2.55;;;13.10;99.90;;;;;;5091616;28;20031;-77
2022/02/09 15:31:06;;;;;;;4.30;2.63;;;13.10;99.90;;;;;;5084055;28;20024;-77
2022/02/09 15:33:41;;;;;;;3.95;2.90;;;13.20;99.90;;;;;;5087462;28;20081;-77
2022/02/09 15:36:11;;;;;;;6.75;3.20;;;13.10;99.90;;;;;;5080376;28;20062;-77
2022/02/09 15:38:45;;;;;;;7.60;2.47;;;13.20;99.90;;;;;;5088756;28;20108;-77
2022/02/09 15:57:53;;;;;;;4.95;3.63;;;13.00;99.90;;;;;;5085923;28;20094;-76
2022/02/09 16:05:42;;;;;;;3.15;2.13;;;13.00;99.90;;;;;;5089049;28;20059;-78
2022/02/09 16:24:24;;;;;;;2.53;1.35;;;12.80;99.90;;;;;;5074342;28;20170;-75
2022/02/09 16:36:07;;;;;;;1.75;1.50;;;12.80;99.90;;;;;;5086632;28;20547;-76
2022/02/09 16:38:05;;;;;;;3.42;1.52;;;12.80;99.90;;;;;;5086762;28;20077;-75
2022/02/09 16:49:07;;;;;;;4.22;2.60;;;12.80;99.90;;;;;;5083890;28;20040;-84
2022/02/09 16:51:44;;;;;;;4.85;2.83;;;12.80;99.90;;;;;;5090832;28;20413;-77
2022/02/09 17:21:20;;;;;;;2.55;1.77;;;12.70;99.90;;;;;;5087234;28;20120;-78
2022/02/09 17:23:47;;;;;;;2.28;1.60;;;12.70;99.90;;;;;;5079211;28;20024;-77
2022/02/09 17:26:15;;;;;;;2.60;2.05;;;12.70;99.90;;;;;;5085498;28;20067;-76
2022/02/09 17:28:58;;;;;;;4.82;2.00;;;12.60;99.90;;;;;;5089432;28;20032;-76
2022/02/09 17:31:32;;;;;;;3.42;1.95;;;12.60;99.90;;;;;;5088159;28;20028;-77
2022/02/09 17:56:14;;;;;;;3.55;2.20;;;12.50;99.90;;;;;;5082094;28;20054;-79
2022/02/09 17:58:37;;;;;;;4.80;2.42;;;12.50;99.90;;;;;;5083811;28;20044;-79
2022/02/09 18:01:04;;;;;;;2.30;2.03;;;12.50;99.90;;;;;;5082104;28;20024;-79
2022/02/09 18:03:30;;;;;;;5.32;2.15;;;12.60;99.90;;;;;;5090031;28;20029;-77
2022/02/09 18:06:07;;;;;;;3.63;2.70;;;12.60;99.90;;;;;;5085097;28;20032;-80
2022/02/09 18:09:26;;;;;;;4.45;2.47;;;12.50;99.90;;;;;;5084366;28;20404;-78
2022/02/09 18:14:20;;;;;;;3.78;2.10;;;12.50;99.90;;;;;;5086642;28;20028;-76
2022/02/09 18:28:44;;;;;;;5.95;2.63;;;12.40;99.90;;;;;;5087798;28;20044;-75
2022/02/09 18:31:08;;;;;;;4.28;2.40;;;12.40;99.90;;;;;;5086361;28;20366;-75
2022/02/09 18:33:51;;;;;;;4.55;2.55;;;12.50;99.90;;;;;;5086787;28;20108;-76
2022/02/09 18:44:22;;;;;;;10.63;4.57;;;12.50;99.90;;;;;;5092804;28;20783;-76
2022/02/09 18:59:14;;;;;;;7.88;5.75;;;12.40;99.90;;;;;;5086945;28;20047;-76
2022/02/09 19:03:39;;;;;;;8.02;5.93;;;12.40;99.90;;;;;;5087333;28;20052;-77
2022/02/09 19:06:22;;;;;;;7.95;5.78;;;12.40;99.90;;;;;;5088652;28;20051;-77
2022/02/09 19:16:51;;;;;;;7.53;4.43;;;12.30;99.90;;;;;;5083448;28;20060;-77
2022/02/09 19:30:40;;;;;;;11.40;7.60;;;12.30;99.90;;;;;;5082817;28;20089;-77
2022/02/09 19:48:52;;;;;;;11.77;6.78;;;12.20;99.90;;;;;;5086183;28;20077;-77
2022/02/09 19:56:13;;;;;;;8.95;7.05;;;12.20;99.90;;;;;;5091752;28;20032;-77
2022/02/09 19:58:46;;;;;;;10.23;7.90;;;12.20;99.90;;;;;;5087346;28;20028;-77
2022/02/09 20:01:17;;;;;;;10.35;6.90;;;12.30;99.90;;;;;;5087334;28;20128;-76
2022/02/09 20:03:42;;;;;;;10.32;6.70;;;12.20;99.90;;;;;;5090230;28;20017;-76
2022/02/09 20:06:09;;;;;;;9.75;6.70;;;12.10;99.90;;;;;;5084728;28;20028;-76
2022/02/09 20:08:37;;;;;;;7.80;6.68;;;12.20;99.90;;;;;;5088531;28;20036;-77
2022/02/09 20:11:08;;;;;;;10.65;7.22;;;12.20;99.90;;;;;;5091509;28;20043;-76
2022/02/09 20:13:34;;;;;;;10.02;6.80;;;12.20;99.90;;;;;;5086429;28;20038;-77
2022/02/09 20:16:00;;;;;;;8.85;6.65;;;12.20;99.90;;;;;;5087540;28;20031;-76
2022/02/09 20:18:27;;;;;;;9.60;7.10;;;12.30;99.90;;;;;;5082156;28;20427;-76
2022/02/09 20:20:56;;;;;;;9.05;6.60;;;12.10;99.90;;;;;;5089193;28;20635;-77
2022/02/09 20:23:22;;;;;;;9.00;6.75;;;12.20;99.90;;;;;;5086617;28;20017;-77
2022/02/09 20:25:48;;;;;;;9.05;6.40;;;12.10;99.90;;;;;;5092020;28;20116;-75
2022/02/09 20:28:15;;;;;;;8.75;6.88;;;12.10;99.90;;;;;;5090193;28;20464;-76
2022/02/09 20:30:46;;;;;;;11.20;7.40;;;12.10;99.90;;;;;;5091075;28;20016;-77
2022/02/09 20:33:16;;;;;;;9.30;7.57;;;12.10;99.90;;;;;;5089402;28;20028;-77
2022/02/09 20:35:42;;;;;;;10.52;7.13;;;12.10;99.90;;;;;;5085551;28;20028;-77
2022/02/09 20:38:17;;;;;;;11.40;7.43;;;12.10;99.90;;;;;;5089258;28;20023;-77
2022/02/09 20:40:56;;;;;;;9.85;7.30;;;12.10;99.90;;;;;;5089963;28;20035;-77
2022/02/09 20:43:24;;;;;;;8.30;7.03;;;12.10;99.90;;;;;;5088419;28;20123;-77
2022/02/09 20:45:53;;;;;;;12.38;7.78;;;12.20;99.90;;;;;;5085861;28;20032;-76
2022/02/09 20:48:24;;;;;;;7.13;5.95;;;12.20;99.90;;;;;;5088272;28;20028;-76
2022/02/09 20:50:51;;;;;;;10.63;6.47;;;12.20;99.90;;;;;;5085452;28;20032;-76
2022/02/09 20:53:19;;;;;;;9.10;6.80;;;12.20;99.90;;;;;;5087858;28;20024;-77
2022/02/09 20:55:46;;;;;;;8.75;6.93;;;12.10;99.90;;;;;;5084689;28;20020;-77
2022/02/09 20:58:12;;;;;;;9.30;7.18;;;12.20;99.90;;;;;;5089462;28;20067;-78
2022/02/09 21:00:40;;;;;;;10.02;7.60;;;12.10;99.90;;;;;;5085226;28;20024;-76
2022/02/09 21:03:28;;;;;;;10.35;7.47;;;12.10;99.90;;;;;;5084447;28;20063;-77
2022/02/09 21:14:07;;;;;;;12.73;7.88;;;12.20;99.90;;;;;;5081068;28;20033;-77
2022/02/09 21:24:52;;;;;;;11.50;8.13;;;12.00;99.90;;;;;;5090362;28;20036;-76
2022/02/09 21:54:32;;;;;;;12.68;9.52;;;11.80;99.90;;;;;;5089923;28;20047;-76
2022/02/09 21:56:52;;;;;;;12.88;9.43;;;11.70;99.90;;;;;;5085714;28;20431;-76
2022/02/09 21:59:55;;;;;;;11.18;8.98;;;11.80;99.90;;;;;;5093617;28;20534;-76
2022/02/09 22:19:19;;;;;;;13.45;9.35;;;11.60;99.90;;;;;;5081946;28;20067;-76
2022/02/09 22:25:25;;;;;;;11.45;9.07;;;11.60;99.90;;;;;;5085560;28;20028;-76
2022/02/09 22:34:16;;;;;;;12.73;10.45;;;11.60;99.90;;;;;;5086789;28;20039;-76
2022/02/09 22:56:53;;;;;;;13.50;9.63;;;11.40;99.90;;;;;;5086212;28;20388;-77
2022/02/09 22:59:38;;;;;;;13.60;9.70;;;11.30;99.90;;;;;;5091894;28;20024;-76
2022/02/09 23:02:10;;;;;;;13.88;10.27;;;11.30;99.90;;;;;;5088193;28;20020;-76
2022/02/09 23:07:13;;;;;;;15.13;9.50;;;11.30;99.90;;;;;;5091962;28;20343;-76
